Time;durP1;ratioP1;P1;durP2;ratioP2;P2;SDS_P1;SDS_P2;PMS_P1;PMS_P2;Temp;Humidity;BMP_temperature;BMP_pressure;BME280_temperature;BME280_humidity;BME280_pressure;Samples;Min_cycle;Max_cycle;Signal;HPM_P1;HPM_P2
2022/11/15 00:03:29;;;;;;;10.07;9.47;;;10.40;99.90;;;;;;10369691;28;20206;-78
2022/11/15 00:08:50;;;;;;;10.33;9.53;;;10.40;99.90;;;;;;10348842;28;20234;-78
2022/11/15 00:14:12;;;;;;;9.70;9.10;;;10.40;99.90;;;;;;10352810;28;20217;-81
2022/11/15 00:19:33;;;;;;;10.00;9.07;;;10.50;99.90;;;;;;10341597;28;20662;-81
2022/11/15 00:24:53;;;;;;;10.30;9.47;;;10.50;99.90;;;;;;10354250;28;20197;-78
2022/11/15 00:30:16;;;;;;;10.80;10.00;;;10.50;99.90;;;;;;10334135;28;20214;-78
2022/11/15 00:35:36;;;;;;;10.80;9.80;;;10.50;99.90;;;;;;10295777;28;20211;-79
2022/11/15 00:40:57;;;;;;;11.93;9.80;;;10.50;99.90;;;;;;10360022;28;20274;-78
2022/11/15 00:46:19;;;;;;;10.60;9.80;;;10.50;99.90;;;;;;10375940;28;20195;-78
2022/11/15 00:51:39;;;;;;;9.50;8.80;;;10.50;99.90;;;;;;10341399;28;20277;-78
2022/11/15 00:57:00;;;;;;;9.23;8.50;;;10.50;99.90;;;;;;10362587;28;20218;-78
2022/11/15 01:02:22;;;;;;;8.70;8.10;;;10.50;99.90;;;;;;10344440;28;20592;-78
2022/11/15 01:07:42;;;;;;;8.40;7.87;;;10.40;99.90;;;;;;10359208;28;20215;-79
2022/11/15 01:13:03;;;;;;;8.73;7.90;;;10.40;99.90;;;;;;10353197;28;20201;-78
2022/11/15 01:18:25;;;;;;;8.37;7.27;;;10.40;99.90;;;;;;10342709;28;20230;-79
2022/11/15 01:23:45;;;;;;;7.40;6.83;;;10.30;99.90;;;;;;10360041;28;20198;-79
2022/11/15 01:29:06;;;;;;;7.83;6.97;;;10.20;99.90;;;;;;10358096;28;20290;-79
2022/11/15 01:34:28;;;;;;;7.03;6.50;;;10.20;99.90;;;;;;10365048;28;20229;-79
2022/11/15 01:39:48;;;;;;;7.90;7.20;;;10.10;99.90;;;;;;10368027;28;20220;-78
2022/11/15 01:45:14;;;;;;;7.40;6.70;;;10.00;99.90;;;;;;10348277;28;20217;-79
2022/11/15 01:50:36;;;;;;;7.20;6.70;;;10.00;99.90;;;;;;10349311;28;20227;-79
2022/11/15 01:55:57;;;;;;;6.50;6.10;;;9.90;99.90;;;;;;10336400;28;20215;-78
2022/11/15 02:01:17;;;;;;;17.23;15.73;;;9.80;99.90;;;;;;10362431;28;20301;-79
2022/11/15 02:06:40;;;;;;;8.87;8.07;;;9.80;99.90;;;;;;10331019;28;20583;-79
2022/11/15 02:12:01;;;;;;;7.17;6.57;;;9.80;99.90;;;;;;10293641;28;20235;-78
2022/11/15 02:17:34;;;;;;;38.17;27.30;;;9.80;99.90;;;;;;10300175;28;20262;-79
2022/11/15 02:23:15;;;;;;;11.73;7.87;;;9.90;99.90;;;;;;10369634;28;20246;-78
2022/11/15 02:28:51;;;;;;;6.00;5.70;;;9.90;99.90;;;;;;10346881;28;20292;-79
2022/11/15 02:34:25;;;;;;;7.13;6.73;;;9.80;99.90;;;;;;10362270;28;20211;-79
2022/11/15 02:39:52;;;;;;;7.57;6.87;;;9.80;99.90;;;;;;10345554;28;20222;-78
2022/11/15 02:45:20;;;;;;;11.00;10.30;;;9.90;99.90;;;;;;10361334;28;20207;-78
2022/11/15 02:50:43;;;;;;;8.63;7.93;;;9.80;99.90;;;;;;10346149;28;20225;-78
2022/11/15 02:56:04;;;;;;;9.40;6.47;;;9.80;99.90;;;;;;10359662;28;20221;-78
2022/11/15 03:01:39;;;;;;;10.37;9.47;;;9.80;99.90;;;;;;10370574;28;20337;-78
2022/11/15 03:07:08;;;;;;;6.97;6.50;;;9.80;99.90;;;;;;10337297;28;20242;-81
2022/11/15 03:12:35;;;;;;;7.33;6.73;;;9.90;99.90;;;;;;10374523;28;20229;-78
2022/11/15 03:17:59;;;;;;;8.30;7.70;;;9.80;99.90;;;;;;10339153;28;20211;-78
2022/11/15 03:23:22;;;;;;;8.10;7.60;;;9.80;99.90;;;;;;10297376;28;20285;-77
2022/11/15 03:28:48;;;;;;;10.13;8.60;;;9.80;99.90;;;;;;10373331;28;20211;-77
2022/11/15 03:34:14;;;;;;;7.20;6.70;;;9.70;99.90;;;;;;10341845;28;20190;-77
2022/11/15 03:39:36;;;;;;;8.00;7.40;;;9.70;99.90;;;;;;10354196;28;20245;-78
2022/11/15 03:45:03;;;;;;;7.20;6.80;;;9.60;99.90;;;;;;10366660;28;20187;-80
2022/11/15 03:50:25;;;;;;;8.03;7.10;;;9.60;99.90;;;;;;10351010;28;20222;-78
2022/11/15 03:55:47;;;;;;;8.00;7.50;;;9.60;99.90;;;;;;10360066;28;20521;-80
2022/11/15 04:01:08;;;;;;;7.30;6.80;;;9.70;99.90;;;;;;10355650;28;20639;-79
2022/11/15 04:06:28;;;;;;;9.07;8.37;;;9.70;99.90;;;;;;10356190;28;20277;-80
2022/11/15 04:11:50;;;;;;;8.57;8.10;;;9.70;99.90;;;;;;10343514;28;20300;-81
2022/11/15 04:17:10;;;;;;;8.83;8.30;;;9.70;99.90;;;;;;10353105;28;20222;-83
2022/11/15 04:28:11;;;;;;;7.53;7.13;;;9.70;99.90;;;;;;10347135;28;20223;-83
2022/11/15 04:33:32;;;;;;;8.00;7.50;;;9.70;99.90;;;;;;10373123;28;20325;-80
2022/11/15 04:38:52;;;;;;;7.97;7.47;;;9.80;99.90;;;;;;10346559;28;20217;-79
2022/11/15 04:44:14;;;;;;;9.20;8.50;;;9.80;99.90;;;;;;10343058;28;20219;-79
2022/11/15 04:49:35;;;;;;;7.80;7.20;;;9.80;99.90;;;;;;10376975;28;20255;-79
2022/11/15 04:54:55;;;;;;;7.30;6.83;;;9.80;99.90;;;;;;10318693;28;20223;-79
2022/11/15 05:00:19;;;;;;;8.40;7.90;;;9.80;99.90;;;;;;10373505;28;20218;-79
2022/11/15 05:05:40;;;;;;;11.73;10.83;;;9.70;99.90;;;;;;10343273;28;20224;-80
2022/11/15 05:11:00;;;;;;;10.17;9.47;;;9.70;99.90;;;;;;10368201;28;20215;-78
2022/11/15 05:16:22;;;;;;;17.67;15.80;;;9.70;99.90;;;;;;10345199;28;20309;-80
2022/11/15 05:21:42;;;;;;;11.00;10.20;;;9.60;99.90;;;;;;10366417;28;20753;-78
2022/11/15 05:27:03;;;;;;;19.97;17.20;;;9.60;99.90;;;;;;10335771;28;20187;-78
2022/11/15 05:32:25;;;;;;;19.30;17.10;;;9.60;99.90;;;;;;10346711;28;20201;-77
2022/11/15 05:37:45;;;;;;;12.10;11.10;;;9.60;99.90;;;;;;10356114;28;20219;-79
2022/11/15 05:43:07;;;;;;;9.43;8.90;;;9.50;99.90;;;;;;10329207;28;20205;-80
2022/11/15 05:48:28;;;;;;;9.07;8.40;;;9.50;99.90;;;;;;10343560;28;20694;-78
2022/11/15 05:53:50;;;;;;;8.90;8.30;;;9.60;99.90;;;;;;10360193;28;20268;-78
2022/11/15 05:59:12;;;;;;;9.93;9.23;;;9.60;99.90;;;;;;10345992;28;20211;-80
2022/11/15 06:04:34;;;;;;;12.40;11.50;;;9.70;99.90;;;;;;10362251;28;20218;-78
2022/11/15 06:09:54;;;;;;;10.60;9.90;;;9.70;99.90;;;;;;10339354;28;20215;-78
2022/11/15 06:15:15;;;;;;;9.30;8.70;;;9.70;99.90;;;;;;10321515;28;20245;-78
2022/11/15 06:20:37;;;;;;;7.87;7.20;;;9.70;99.90;;;;;;10372881;28;20660;-77
2022/11/15 06:25:59;;;;;;;9.30;8.43;;;9.80;99.90;;;;;;10334384;28;20203;-77
2022/11/15 06:31:19;;;;;;;8.50;7.90;;;9.80;99.90;;;;;;10295719;28;20227;-78
2022/11/15 06:36:41;;;;;;;8.90;8.20;;;9.70;99.90;;;;;;10299081;28;20302;-81
2022/11/15 06:42:02;;;;;;;8.23;7.63;;;9.70;99.90;;;;;;10357184;28;20210;-80
2022/11/15 06:47:22;;;;;;;8.53;7.80;;;9.70;99.90;;;;;;10378406;28;20190;-77
2022/11/15 06:52:44;;;;;;;10.47;9.40;;;9.70;99.90;;;;;;10369948;28;20194;-76
2022/11/15 06:58:05;;;;;;;8.80;7.93;;;9.80;99.90;;;;;;10346946;28;20229;-78
2022/11/15 07:03:25;;;;;;;9.83;8.83;;;9.80;99.90;;;;;;10366399;28;20195;-78
2022/11/15 07:08:50;;;;;;;13.27;11.97;;;9.80;99.90;;;;;;10359698;28;20351;-78
2022/11/15 07:14:11;;;;;;;11.47;10.67;;;9.80;99.90;;;;;;10365792;28;20194;-78
2022/11/15 07:19:31;;;;;;;13.67;12.27;;;9.90;99.90;;;;;;10385594;23;20233;-78
2022/11/15 07:24:53;;;;;;;12.47;11.30;;;10.00;99.90;;;;;;10418764;28;20631;-79
2022/11/15 07:30:17;;;;;;;11.50;10.57;;;10.10;99.90;;;;;;10415387;28;20221;-80
2022/11/15 07:35:40;;;;;;;11.53;10.53;;;10.20;99.90;;;;;;10419677;28;20585;-78
2022/11/15 07:41:07;;;;;;;11.80;11.10;;;10.30;99.90;;;;;;10416812;28;20210;-81
2022/11/15 07:46:40;;;;;;;12.83;11.83;;;10.50;99.90;;;;;;10423916;28;20190;-80
2022/11/15 07:52:02;;;;;;;13.03;12.03;;;10.60;99.90;;;;;;10396513;23;20584;-81
2022/11/15 07:57:24;;;;;;;12.57;11.30;;;10.80;99.90;;;;;;10394672;28;20225;-82
2022/11/15 08:02:44;;;;;;;12.70;11.60;;;11.00;99.90;;;;;;10341301;28;20710;-83
2022/11/15 08:08:06;;;;;;;12.07;10.93;;;11.20;99.90;;;;;;10346753;28;20202;-82
2022/11/15 08:13:28;;;;;;;14.20;12.90;;;11.30;99.90;;;;;;10341999;28;20277;-82
2022/11/15 08:18:49;;;;;;;11.50;10.73;;;11.50;99.90;;;;;;10335396;28;20246;-81
2022/11/15 08:24:11;;;;;;;11.10;10.17;;;11.60;99.90;;;;;;10341298;28;20687;-81
2022/11/15 08:29:33;;;;;;;12.10;11.10;;;11.70;99.90;;;;;;10334446;28;20661;-81
2022/11/15 08:34:54;;;;;;;12.57;11.63;;;11.70;99.90;;;;;;10331568;28;20198;-80
2022/11/15 08:40:15;;;;;;;11.77;10.67;;;11.70;99.90;;;;;;10336104;28;20215;-81
2022/11/15 08:45:37;;;;;;;13.47;12.53;;;11.60;99.90;;;;;;10333216;28;20187;-82
2022/11/15 08:51:01;;;;;;;14.27;13.00;;;11.60;99.90;;;;;;10345059;28;20227;-83
2022/11/15 08:56:21;;;;;;;11.50;10.50;;;11.50;99.90;;;;;;10353428;28;20297;-82
2022/11/15 09:01:43;;;;;;;12.80;11.70;;;11.50;99.90;;;;;;10367981;28;20627;-81
2022/11/15 09:07:04;;;;;;;13.10;11.90;;;11.50;99.90;;;;;;10351891;28;20194;-82
2022/11/15 09:12:25;;;;;;;14.97;12.43;;;11.50;99.90;;;;;;10352681;28;20757;-82
2022/11/15 09:17:47;;;;;;;15.03;12.87;;;11.60;99.90;;;;;;10355194;28;20607;-82
2022/11/15 09:23:08;;;;;;;14.03;11.83;;;11.80;99.90;;;;;;10354938;28;20195;-81
2022/11/15 09:28:29;;;;;;;11.70;10.80;;;11.90;99.90;;;;;;10347897;28;20210;-82
2022/11/15 09:33:51;;;;;;;14.87;13.50;;;12.10;99.90;;;;;;10351525;28;20191;-81
2022/11/15 09:39:12;;;;;;;23.10;20.90;;;12.30;99.90;;;;;;10356022;28;20219;-81
2022/11/15 09:44:53;;;;;;;15.07;13.53;;;12.40;99.90;;;;;;10361266;28;20187;-82
2022/11/15 09:50:20;;;;;;;15.33;13.73;;;12.50;99.90;;;;;;10347407;28;20219;-82
2022/11/15 09:55:33;;;;;;;11.83;10.90;;;12.40;99.90;;;;;;10313438;28;20726;-81
2022/11/15 10:00:41;;;;;;;15.83;14.50;;;12.40;99.90;;;;;;10323825;28;20246;-82
2022/11/15 10:05:46;;;;;;;18.70;16.87;;;12.40;99.90;;;;;;10332613;28;20612;-83
2022/11/15 10:10:52;;;;;;;13.37;12.23;;;12.50;99.90;;;;;;10326132;28;20255;-81
2022/11/15 10:16:00;;;;;;;16.23;11.53;;;12.60;99.90;;;;;;10298078;28;20214;-83
2022/11/15 10:21:16;;;;;;;10.07;9.07;;;12.70;99.90;;;;;;10307575;28;20227;-82
2022/11/15 10:26:18;;;;;;;10.87;9.87;;;12.80;99.90;;;;;;10340134;28;20195;-83
2022/11/15 10:31:25;;;;;;;10.27;9.23;;;12.90;99.90;;;;;;10341338;28;20620;-82
2022/11/15 10:36:29;;;;;;;10.20;9.10;;;13.00;99.90;;;;;;10347431;28;20725;-82
2022/11/15 10:41:37;;;;;;;8.47;7.40;;;13.00;99.90;;;;;;10332100;28;20227;-82
2022/11/15 10:46:41;;;;;;;10.43;9.40;;;13.10;99.90;;;;;;10319520;28;20676;-83
2022/11/15 10:51:49;;;;;;;8.10;7.53;;;13.20;99.90;;;;;;10324727;28;20234;-83
2022/11/15 10:56:54;;;;;;;7.17;6.57;;;13.20;99.90;;;;;;10332208;28;20261;-82
2022/11/15 11:01:56;;;;;;;7.57;6.97;;;13.30;99.90;;;;;;10330113;28;20293;-83
2022/11/15 11:07:00;;;;;;;8.13;7.30;;;13.30;99.90;;;;;;10337736;28;20211;-83
2022/11/15 11:12:04;;;;;;;6.60;6.30;;;13.30;99.90;;;;;;10345617;28;20218;-83
2022/11/15 11:17:14;;;;;;;7.27;6.77;;;13.30;99.90;;;;;;10345525;28;20311;-83
2022/11/15 11:22:24;;;;;;;8.03;7.33;;;13.30;99.90;;;;;;10335146;28;20218;-82
2022/11/15 11:27:41;;;;;;;7.67;7.10;;;13.30;99.90;;;;;;10322016;28;20210;-83
2022/11/15 11:33:01;;;;;;;9.97;9.07;;;13.30;99.90;;;;;;10324747;28;20641;-83
2022/11/15 11:38:18;;;;;;;9.33;8.53;;;13.30;99.90;;;;;;10340400;28;20242;-82
2022/11/15 11:43:29;;;;;;;8.40;7.60;;;13.30;99.90;;;;;;10343699;28;20199;-83
2022/11/15 11:48:42;;;;;;;8.13;7.53;;;13.40;99.90;;;;;;10341678;28;20290;-82
2022/11/15 11:53:51;;;;;;;7.47;6.77;;;13.50;99.90;;;;;;10346710;28;20195;-83
2022/11/15 11:58:56;;;;;;;7.77;7.17;;;13.50;99.90;;;;;;10326727;28;20246;-82
2022/11/15 12:04:04;;;;;;;7.67;7.00;;;13.50;99.90;;;;;;10343885;28;20576;-83
2022/11/15 12:09:14;;;;;;;8.57;7.87;;;13.60;99.90;;;;;;10324495;28;20215;-83
2022/11/15 12:14:25;;;;;;;8.07;7.57;;;13.70;99.90;;;;;;10329642;28;20199;-81
2022/11/15 12:19:29;;;;;;;8.33;7.63;;;13.70;99.90;;;;;;10341936;28;20231;-83
2022/11/15 12:24:39;;;;;;;9.10;8.30;;;13.70;99.90;;;;;;10336662;28;20202;-82
2022/11/15 12:29:44;;;;;;;7.73;7.13;;;13.70;99.90;;;;;;10342787;28;20242;-81
2022/11/15 12:34:49;;;;;;;7.30;6.80;;;13.70;99.90;;;;;;10346167;28;20203;-83
2022/11/15 12:40:24;;;;;;;8.67;7.53;;;13.70;99.90;;;;;;10355913;28;20341;-83
2022/11/15 12:45:28;;;;;;;7.50;6.73;;;13.70;99.90;;;;;;10286924;28;20209;-83
2022/11/15 12:50:57;;;;;;;8.97;8.20;;;13.70;99.90;;;;;;10339698;28;20638;-83
2022/11/15 12:56:20;;;;;;;9.17;8.27;;;13.70;99.90;;;;;;10316114;28;20765;-83
2022/11/15 13:01:58;;;;;;;7.30;6.60;;;13.80;99.90;;;;;;10320930;28;20274;-82
2022/11/15 13:07:02;;;;;;;7.47;6.67;;;13.90;99.90;;;;;;10334979;28;20755;-82
2022/11/15 13:12:09;;;;;;;9.93;7.30;;;13.90;99.90;;;;;;10336674;28;20219;-82
2022/11/15 13:17:36;;;;;;;8.90;8.10;;;14.00;99.90;;;;;;10326302;28;20659;-82
2022/11/15 13:22:51;;;;;;;7.27;6.67;;;14.10;99.90;;;;;;10329942;28;20241;-82
2022/11/15 13:27:58;;;;;;;9.40;8.70;;;14.10;99.90;;;;;;10343058;28;20198;-83
2022/11/15 13:33:09;;;;;;;8.90;8.20;;;14.10;99.90;;;;;;10331276;28;20674;-81
2022/11/15 13:38:25;;;;;;;10.77;9.83;;;14.10;99.90;;;;;;10334067;28;20729;-82
2022/11/15 13:43:34;;;;;;;15.23;14.00;;;14.10;99.90;;;;;;10324155;28;20218;-83
2022/11/15 13:48:37;;;;;;;7.20;6.50;;;14.10;99.90;;;;;;10326163;23;20342;-84
2022/11/15 13:53:42;;;;;;;8.43;7.83;;;14.00;99.90;;;;;;10337326;28;20254;-83
2022/11/15 13:58:46;;;;;;;7.63;7.03;;;14.00;99.90;;;;;;10337866;28;20671;-82
2022/11/15 14:03:55;;;;;;;8.60;7.30;;;14.00;99.90;;;;;;10336970;28;20199;-82
2022/11/15 14:09:39;;;;;;;13.07;7.90;;;14.00;99.90;;;;;;10334296;28;20561;-82
2022/11/15 14:14:47;;;;;;;9.50;8.70;;;13.90;99.90;;;;;;10317488;28;20199;-81
2022/11/15 14:19:52;;;;;;;9.13;8.43;;;13.80;99.90;;;;;;10339182;28;20219;-81
2022/11/15 14:25:22;;;;;;;12.10;10.20;;;13.70;99.90;;;;;;10338960;28;20199;-82
2022/11/15 14:30:25;;;;;;;10.33;9.40;;;13.60;99.90;;;;;;10303854;28;20710;-82
2022/11/15 14:35:28;;;;;;;9.80;9.10;;;13.50;99.90;;;;;;10333369;28;20679;-82
2022/11/15 14:40:30;;;;;;;8.33;7.53;;;13.40;99.90;;;;;;10339875;28;20285;-82
2022/11/15 14:45:35;;;;;;;9.93;9.00;;;13.40;99.90;;;;;;10340091;28;20682;-80
2022/11/15 14:50:37;;;;;;;11.17;10.10;;;13.30;99.90;;;;;;10340910;28;20642;-80
2022/11/15 14:55:39;;;;;;;9.57;8.60;;;13.30;99.90;;;;;;10342072;28;20199;-81
2022/11/15 15:00:43;;;;;;;9.50;8.77;;;13.20;99.90;;;;;;10340738;28;20223;-80
2022/11/15 15:05:45;;;;;;;11.10;10.03;;;13.10;99.90;;;;;;10337333;28;20306;-81
2022/11/15 15:10:47;;;;;;;11.77;9.60;;;13.10;99.90;;;;;;10317593;28;20699;-81
2022/11/15 15:15:52;;;;;;;8.57;7.77;;;13.00;99.90;;;;;;10336914;28;20230;-77
2022/11/15 15:20:59;;;;;;;10.40;9.80;;;13.00;99.90;;;;;;10357250;28;20718;-82
2022/11/15 15:26:01;;;;;;;10.07;9.47;;;13.00;99.90;;;;;;10338195;28;20209;-81
2022/11/15 15:31:05;;;;;;;11.83;11.03;;;12.90;99.90;;;;;;10317862;28;20302;-81
2022/11/15 15:36:11;;;;;;;27.57;24.60;;;12.90;99.90;;;;;;10321990;28;20656;-82
2022/11/15 15:41:15;;;;;;;12.50;11.40;;;12.90;99.90;;;;;;10339275;28;20243;-81
2022/11/15 15:46:20;;;;;;;11.60;10.83;;;12.90;99.90;;;;;;10321996;28;20211;-81
2022/11/15 15:51:22;;;;;;;11.07;10.10;;;12.90;99.90;;;;;;10321575;28;20223;-82
2022/11/15 15:56:24;;;;;;;10.30;9.50;;;12.90;99.90;;;;;;10347131;28;20234;-81
2022/11/15 16:01:27;;;;;;;10.73;9.93;;;12.90;99.90;;;;;;10337187;28;20235;-82
2022/11/15 16:06:37;;;;;;;9.30;7.50;;;12.90;99.90;;;;;;10334042;28;20203;-82
2022/11/15 16:11:39;;;;;;;8.53;7.73;;;12.90;99.90;;;;;;10312195;28;20219;-82
2022/11/15 16:16:43;;;;;;;9.50;8.60;;;13.00;99.90;;;;;;10300812;28;20298;-82
2022/11/15 16:21:45;;;;;;;10.57;9.67;;;13.00;99.90;;;;;;10321384;28;20239;-81
2022/11/15 16:26:48;;;;;;;14.50;12.57;;;13.10;99.90;;;;;;10338048;28;20191;-80
2022/11/15 16:31:52;;;;;;;12.63;11.43;;;13.10;99.90;;;;;;10321375;28;20243;-80
2022/11/15 16:36:55;;;;;;;11.00;9.40;;;13.20;99.90;;;;;;10336449;28;20211;-81
2022/11/15 16:41:57;;;;;;;11.43;10.43;;;13.20;99.90;;;;;;10336092;28;20208;-82
2022/11/15 16:47:02;;;;;;;11.90;10.80;;;13.20;99.90;;;;;;10352354;28;20191;-82
2022/11/15 16:52:04;;;;;;;17.10;14.20;;;13.20;99.90;;;;;;10337895;28;20226;-80
2022/11/15 16:57:06;;;;;;;12.30;10.30;;;13.20;99.90;;;;;;10320684;28;20211;-80
2022/11/15 17:02:12;;;;;;;13.33;11.93;;;13.10;99.90;;;;;;10336750;28;20695;-82
2022/11/15 17:07:14;;;;;;;14.97;13.37;;;13.10;99.90;;;;;;10354056;28;20191;-80
2022/11/15 17:12:16;;;;;;;14.53;13.03;;;13.00;99.90;;;;;;10339168;28;20670;-80
2022/11/15 17:17:20;;;;;;;14.20;13.10;;;13.00;99.90;;;;;;10353931;28;20305;-81
2022/11/15 17:22:22;;;;;;;15.47;13.83;;;12.90;99.90;;;;;;10338614;28;20639;-82
2022/11/15 17:27:24;;;;;;;14.03;12.70;;;12.90;99.90;;;;;;10345123;28;20579;-81
2022/11/15 17:32:28;;;;;;;15.10;13.50;;;12.90;99.90;;;;;;10336581;28;20222;-82
2022/11/15 17:37:30;;;;;;;16.70;14.13;;;12.90;99.90;;;;;;10335958;28;20322;-82
2022/11/15 17:42:32;;;;;;;18.17;14.37;;;12.80;99.90;;;;;;10323882;28;20225;-82
2022/11/15 17:47:35;;;;;;;13.00;11.70;;;12.80;99.90;;;;;;10337166;28;20608;-82
2022/11/15 17:52:38;;;;;;;13.10;11.97;;;12.80;99.90;;;;;;10336141;28;20218;-81
2022/11/15 17:57:40;;;;;;;11.97;10.83;;;12.80;99.90;;;;;;10336120;28;20219;-80
2022/11/15 18:02:43;;;;;;;12.07;10.77;;;12.80;99.90;;;;;;10334384;28;20265;-80
2022/11/15 18:07:45;;;;;;;15.10;13.80;;;12.80;99.90;;;;;;10328076;28;20246;-80
2022/11/15 18:12:47;;;;;;;11.47;10.50;;;12.80;99.90;;;;;;10338164;28;20246;-83
2022/11/15 18:17:54;;;;;;;12.00;10.90;;;12.90;99.90;;;;;;10316478;28;20224;-82
2022/11/15 18:22:56;;;;;;;11.60;10.70;;;12.90;99.90;;;;;;10328755;28;20645;-81
2022/11/15 18:27:58;;;;;;;10.37;9.47;;;12.90;99.90;;;;;;10340070;28;20282;-81
2022/11/15 18:33:02;;;;;;;11.30;10.50;;;12.90;99.90;;;;;;10331324;28;20554;-81
2022/11/15 18:38:04;;;;;;;11.73;10.80;;;12.90;99.90;;;;;;10350697;28;20286;-82
2022/11/15 18:43:06;;;;;;;12.17;11.00;;;12.90;99.90;;;;;;10347926;28;20230;-81
2022/11/15 18:48:09;;;;;;;13.60;12.40;;;12.90;99.90;;;;;;10322865;28;20241;-81
2022/11/15 18:53:11;;;;;;;14.33;13.13;;;12.90;99.90;;;;;;10335374;28;20237;-82
2022/11/15 18:58:13;;;;;;;14.07;12.80;;;12.90;99.90;;;;;;10350227;28;20215;-82
2022/11/15 19:03:16;;;;;;;14.93;13.03;;;12.90;99.90;;;;;;10352071;28;20278;-81
2022/11/15 19:08:19;;;;;;;13.40;12.20;;;12.90;99.90;;;;;;10348711;28;20286;-80
2022/11/15 19:13:21;;;;;;;13.43;12.23;;;12.80;99.90;;;;;;10335007;28;20211;-82
2022/11/15 19:18:25;;;;;;;13.00;11.77;;;12.80;99.90;;;;;;10352193;28;20211;-82
2022/11/15 19:23:27;;;;;;;14.60;12.57;;;12.80;99.90;;;;;;10336968;28;20289;-81
2022/11/15 19:28:30;;;;;;;14.77;13.43;;;12.80;99.90;;;;;;10346676;28;20211;-81
2022/11/15 19:33:33;;;;;;;12.67;11.60;;;12.80;99.90;;;;;;10351365;28;20234;-82
2022/11/15 19:38:36;;;;;;;13.10;12.00;;;12.80;99.90;;;;;;10350664;28;20218;-80
2022/11/15 19:43:38;;;;;;;15.77;14.40;;;12.80;99.90;;;;;;10351632;28;20199;-82
2022/11/15 19:48:42;;;;;;;16.27;14.77;;;12.80;99.90;;;;;;10369996;23;20314;-80
2022/11/15 19:53:44;;;;;;;14.53;13.30;;;12.80;99.90;;;;;;10263519;28;20211;-79
2022/11/15 19:58:49;;;;;;;9.90;9.20;;;12.80;99.90;;;;;;10243332;28;20228;-80
2022/11/15 20:03:54;;;;;;;14.80;13.70;;;12.80;99.90;;;;;;10270385;28;20208;-80
2022/11/15 20:08:57;;;;;;;14.20;13.00;;;12.80;99.90;;;;;;10264859;28;20267;-80
2022/11/15 20:14:00;;;;;;;11.53;10.30;;;12.70;99.90;;;;;;10250419;28;20228;-80
2022/11/15 20:19:04;;;;;;;11.47;10.53;;;12.70;99.90;;;;;;10263050;28;20709;-80
2022/11/15 20:24:07;;;;;;;13.50;11.83;;;12.70;99.90;;;;;;10251616;28;20201;-79
2022/11/15 20:29:10;;;;;;;14.97;13.77;;;12.70;99.90;;;;;;10255014;28;20251;-80
2022/11/15 20:34:13;;;;;;;12.90;11.70;;;12.70;99.90;;;;;;10284066;28;20272;-80
2022/11/15 20:39:15;;;;;;;14.17;13.07;;;12.70;99.90;;;;;;10264567;28;20641;-82
2022/11/15 20:44:17;;;;;;;11.80;11.00;;;12.70;99.90;;;;;;10279115;28;20220;-82
2022/11/15 20:49:21;;;;;;;11.63;10.70;;;12.70;99.90;;;;;;10277621;28;20272;-81
2022/11/15 20:54:23;;;;;;;11.33;10.53;;;12.70;99.90;;;;;;10282476;28;20287;-80
2022/11/15 20:59:25;;;;;;;12.47;11.47;;;12.70;99.90;;;;;;10256848;28;20764;-80
2022/11/15 21:04:28;;;;;;;12.33;11.13;;;12.70;99.90;;;;;;10250261;28;20306;-80
2022/11/15 21:14:51;;;;;;;10.50;9.50;;;12.70;99.90;;;;;;10246982;28;20196;-80
2022/11/15 21:19:55;;;;;;;10.30;9.33;;;12.70;99.90;;;;;;10270654;28;20228;-80
2022/11/15 21:24:58;;;;;;;10.93;10.13;;;12.60;99.90;;;;;;10245278;28;20658;-80
2022/11/15 21:30:01;;;;;;;10.63;9.80;;;12.60;99.90;;;;;;10285309;28;20232;-80
2022/11/15 21:35:05;;;;;;;10.83;9.70;;;12.60;99.90;;;;;;10262191;28;20201;-80
2022/11/15 21:40:08;;;;;;;12.73;11.53;;;12.60;99.90;;;;;;10278684;28;20232;-80
2022/11/15 21:45:11;;;;;;;12.30;11.30;;;12.60;99.90;;;;;;10261992;28;20306;-80
2022/11/15 21:50:17;;;;;;;10.57;9.57;;;12.60;99.90;;;;;;10267350;28;20227;-80
2022/11/15 21:55:20;;;;;;;10.87;10.07;;;12.60;99.90;;;;;;10239273;29;20200;-80
2022/11/15 22:05:45;;;;;;;11.37;10.27;;;12.60;99.90;;;;;;10256627;28;20283;-80
2022/11/15 22:10:48;;;;;;;9.50;8.60;;;12.60;99.90;;;;;;10262665;28;20448;-80
2022/11/15 22:15:50;;;;;;;9.60;8.90;;;12.60;99.90;;;;;;10270720;28;20212;-80
2022/11/15 22:20:55;;;;;;;8.10;7.53;;;12.60;99.90;;;;;;10264593;28;20221;-80
2022/11/15 22:25:57;;;;;;;10.50;9.80;;;12.60;99.90;;;;;;10272810;28;20295;-81
2022/11/15 22:31:00;;;;;;;9.23;8.53;;;12.60;99.90;;;;;;10257397;28;20252;-80
2022/11/15 22:36:05;;;;;;;9.53;8.67;;;12.60;99.90;;;;;;10278869;28;20208;-80
2022/11/15 22:41:08;;;;;;;9.93;9.13;;;12.60;99.90;;;;;;10275135;28;20550;-80
2022/11/15 22:46:10;;;;;;;12.07;10.37;;;12.60;99.90;;;;;;10241610;28;20670;-80
2022/11/15 22:51:14;;;;;;;13.93;12.77;;;12.50;99.90;;;;;;10241386;28;20232;-80
2022/11/15 22:56:16;;;;;;;9.43;8.83;;;12.50;99.90;;;;;;10262770;28;20299;-80
2022/11/15 23:01:21;;;;;;;9.87;9.10;;;12.40;99.90;;;;;;10250993;28;20311;-80
2022/11/15 23:06:24;;;;;;;10.20;9.40;;;12.30;99.90;;;;;;10268233;28;20201;-81
2022/11/15 23:16:47;;;;;;;12.97;11.97;;;12.30;99.90;;;;;;10300888;28;20292;-81
2022/11/15 23:27:14;;;;;;;11.90;11.07;;;12.20;99.90;;;;;;10300224;28;20231;-82
2022/11/15 23:37:36;;;;;;;11.70;10.90;;;12.20;99.90;;;;;;10230482;28;20181;-81
2022/11/15 23:42:39;;;;;;;12.80;11.80;;;12.10;99.90;;;;;;10284305;28;20220;-81
2022/11/15 23:47:41;;;;;;;10.27;9.57;;;12.10;99.90;;;;;;10282507;28;20263;-81
2022/11/15 23:52:45;;;;;;;11.47;10.70;;;12.10;99.90;;;;;;10251414;28;20225;-80
2022/11/15 23:57:47;;;;;;;11.13;10.33;;;12.10;99.90;;;;;;10250687;28;20208;-80
